sensor_id;sensor_type;location;lat;lon;timestamp;temperature;humidity
15083;DHT22;7640;53.116;6.878;2023-08-31T00:00:10;12.20;99.90
15083;DHT22;7640;53.116;6.878;2023-08-31T00:02:40;12.20;99.90
15083;DHT22;7640;53.116;6.878;2023-08-31T00:05:09;12.20;99.90
15083;DHT22;7640;53.116;6.878;2023-08-31T00:07:38;12.20;99.90
15083;DHT22;7640;53.116;6.878;2023-08-31T00:10:07;12.20;99.90
15083;DHT22;7640;53.116;6.878;2023-08-31T00:12:38;12.20;99.90
15083;DHT22;7640;53.116;6.878;2023-08-31T00:15:09;12.20;99.90
15083;DHT22;7640;53.116;6.878;2023-08-31T00:17:38;12.20;99.90
15083;DHT22;7640;53.116;6.878;2023-08-31T00:20:08;12.10;99.90
15083;DHT22;7640;53.116;6.878;2023-08-31T00:22:39;12.10;99.90
15083;DHT22;7640;53.116;6.878;2023-08-31T00:25:07;12.10;99.90
15083;DHT22;7640;53.116;6.878;2023-08-31T00:27:36;12.10;99.90
15083;DHT22;7640;53.116;6.878;2023-08-31T00:30:05;12.10;99.90
15083;DHT22;7640;53.116;6.878;2023-08-31T00:32:37;12.10;99.90
15083;DHT22;7640;53.116;6.878;2023-08-31T00:35:07;12.20;99.90
15083;DHT22;7640;53.116;6.878;2023-08-31T00:37:36;12.20;99.90
15083;DHT22;7640;53.116;6.878;2023-08-31T00:40:06;12.20;99.90
15083;DHT22;7640;53.116;6.878;2023-08-31T00:42:36;12.20;99.90
15083;DHT22;7640;53.116;6.878;2023-08-31T00:45:06;12.20;99.90
15083;DHT22;7640;53.116;6.878;2023-08-31T00:47:37;12.20;99.90
15083;DHT22;7640;53.116;6.878;2023-08-31T00:50:06;12.20;99.90
15083;DHT22;7640;53.116;6.878;2023-08-31T00:52:36;12.20;99.90
15083;DHT22;7640;53.116;6.878;2023-08-31T00:55:05;12.30;99.90
15083;DHT22;7640;53.116;6.878;2023-08-31T00:57:35;12.20;99.90
15083;DHT22;7640;53.116;6.878;2023-08-31T01:00:05;12.20;99.90
15083;DHT22;7640;53.116;6.878;2023-08-31T01:02:40;12.20;99.90
15083;DHT22;7640;53.116;6.878;2023-08-31T01:05:25;12.20;99.90
15083;DHT22;7640;53.116;6.878;2023-08-31T01:08:14;12.20;99.90
15083;DHT22;7640;53.116;6.878;2023-08-31T01:10:58;12.20;99.90
15083;DHT22;7640;53.116;6.878;2023-08-31T01:13:36;12.10;99.90
15083;DHT22;7640;53.116;6.878;2023-08-31T01:16:07;12.10;99.90
15083;DHT22;7640;53.116;6.878;2023-08-31T01:18:40;12.00;99.90
15083;DHT22;7640;53.116;6.878;2023-08-31T01:21:12;12.00;99.90
15083;DHT22;7640;53.116;6.878;2023-08-31T01:23:57;12.00;99.90
15083;DHT22;7640;53.116;6.878;2023-08-31T01:26:27;12.00;99.90
15083;DHT22;7640;53.116;6.878;2023-08-31T01:28:56;11.90;99.90
15083;DHT22;7640;53.116;6.878;2023-08-31T01:31:25;11.90;99.90
15083;DHT22;7640;53.116;6.878;2023-08-31T01:33:54;11.90;99.90
15083;DHT22;7640;53.116;6.878;2023-08-31T01:36:26;11.90;99.90
15083;DHT22;7640;53.116;6.878;2023-08-31T01:39:01;11.90;99.90
15083;DHT22;7640;53.116;6.878;2023-08-31T01:41:34;11.90;99.90
15083;DHT22;7640;53.116;6.878;2023-08-31T01:44:04;11.90;99.90
15083;DHT22;7640;53.116;6.878;2023-08-31T01:46:34;11.90;99.90
15083;DHT22;7640;53.116;6.878;2023-08-31T01:49:05;11.90;99.90
15083;DHT22;7640;53.116;6.878;2023-08-31T01:51:34;11.90;99.90
15083;DHT22;7640;53.116;6.878;2023-08-31T01:54:04;11.90;99.90
15083;DHT22;7640;53.116;6.878;2023-08-31T01:56:33;11.90;99.90
15083;DHT22;7640;53.116;6.878;2023-08-31T01:59:03;11.90;99.90
15083;DHT22;7640;53.116;6.878;2023-08-31T02:01:32;11.80;99.90
15083;DHT22;7640;53.116;6.878;2023-08-31T02:04:01;11.80;99.90
15083;DHT22;7640;53.116;6.878;2023-08-31T02:06:31;11.80;99.90
15083;DHT22;7640;53.116;6.878;2023-08-31T02:09:00;11.80;99.90
15083;DHT22;7640;53.116;6.878;2023-08-31T02:11:30;11.80;99.90
15083;DHT22;7640;53.116;6.878;2023-08-31T02:13:58;11.80;99.90
15083;DHT22;7640;53.116;6.878;2023-08-31T02:16:27;11.80;99.90
15083;DHT22;7640;53.116;6.878;2023-08-31T02:18:56;11.80;99.90
15083;DHT22;7640;53.116;6.878;2023-08-31T02:21:25;11.70;99.90
15083;DHT22;7640;53.116;6.878;2023-08-31T02:23:53;11.70;99.90
15083;DHT22;7640;53.116;6.878;2023-08-31T02:26:22;11.70;99.90
15083;DHT22;7640;53.116;6.878;2023-08-31T02:28:54;11.70;99.90
15083;DHT22;7640;53.116;6.878;2023-08-31T02:31:22;11.70;99.90
15083;DHT22;7640;53.116;6.878;2023-08-31T02:33:51;11.70;99.90
15083;DHT22;7640;53.116;6.878;2023-08-31T02:36:20;11.60;99.90
15083;DHT22;7640;53.116;6.878;2023-08-31T02:38:49;11.60;99.90
15083;DHT22;7640;53.116;6.878;2023-08-31T02:41:19;11.60;99.90
15083;DHT22;7640;53.116;6.878;2023-08-31T02:43:50;11.60;99.90
15083;DHT22;7640;53.116;6.878;2023-08-31T02:46:20;11.60;99.90
15083;DHT22;7640;53.116;6.878;2023-08-31T02:48:50;11.60;99.90
15083;DHT22;7640;53.116;6.878;2023-08-31T02:51:19;11.60;99.90
15083;DHT22;7640;53.116;6.878;2023-08-31T02:53:48;11.60;99.90
15083;DHT22;7640;53.116;6.878;2023-08-31T02:56:17;11.60;99.90
15083;DHT22;7640;53.116;6.878;2023-08-31T02:58:45;11.50;99.90
15083;DHT22;7640;53.116;6.878;2023-08-31T03:01:14;11.50;99.90
15083;DHT22;7640;53.116;6.878;2023-08-31T03:03:44;11.50;99.90
15083;DHT22;7640;53.116;6.878;2023-08-31T03:06:13;11.50;99.90
15083;DHT22;7640;53.116;6.878;2023-08-31T03:08:42;11.50;99.90
15083;DHT22;7640;53.116;6.878;2023-08-31T03:11:12;11.40;99.90
15083;DHT22;7640;53.116;6.878;2023-08-31T03:13:43;11.40;99.90
15083;DHT22;7640;53.116;6.878;2023-08-31T03:16:11;11.40;99.90
15083;DHT22;7640;53.116;6.878;2023-08-31T03:18:40;11.40;99.90
15083;DHT22;7640;53.116;6.878;2023-08-31T03:21:10;11.40;99.90
15083;DHT22;7640;53.116;6.878;2023-08-31T03:23:38;11.40;99.90
15083;DHT22;7640;53.116;6.878;2023-08-31T03:26:07;11.40;99.90
15083;DHT22;7640;53.116;6.878;2023-08-31T03:28:36;11.40;99.90
15083;DHT22;7640;53.116;6.878;2023-08-31T03:31:07;11.40;99.90
15083;DHT22;7640;53.116;6.878;2023-08-31T03:33:36;11.40;99.90
15083;DHT22;7640;53.116;6.878;2023-08-31T03:36:05;11.30;99.90
15083;DHT22;7640;53.116;6.878;2023-08-31T03:38:35;11.30;99.90
15083;DHT22;7640;53.116;6.878;2023-08-31T03:41:05;11.40;99.90
15083;DHT22;7640;53.116;6.878;2023-08-31T03:43:34;11.40;99.90
15083;DHT22;7640;53.116;6.878;2023-08-31T03:46:02;11.40;99.90
15083;DHT22;7640;53.116;6.878;2023-08-31T03:48:31;11.40;99.90
15083;DHT22;7640;53.116;6.878;2023-08-31T03:51:00;11.50;99.90
15083;DHT22;7640;53.116;6.878;2023-08-31T03:53:30;11.50;99.90
15083;DHT22;7640;53.116;6.878;2023-08-31T03:56:00;11.60;99.90
15083;DHT22;7640;53.116;6.878;2023-08-31T03:58:31;11.60;99.90
15083;DHT22;7640;53.116;6.878;2023-08-31T04:01:00;11.70;99.90
15083;DHT22;7640;53.116;6.878;2023-08-31T04:03:30;11.70;99.90
15083;DHT22;7640;53.116;6.878;2023-08-31T04:05:59;11.70;99.90
15083;DHT22;7640;53.116;6.878;2023-08-31T04:08:28;11.80;99.90
15083;DHT22;7640;53.116;6.878;2023-08-31T04:10:57;11.80;99.90
15083;DHT22;7640;53.116;6.878;2023-08-31T04:13:27;11.80;99.90
15083;DHT22;7640;53.116;6.878;2023-08-31T04:15:55;11.80;99.90
15083;DHT22;7640;53.116;6.878;2023-08-31T04:18:24;11.80;99.90
15083;DHT22;7640;53.116;6.878;2023-08-31T04:20:53;11.90;99.90
15083;DHT22;7640;53.116;6.878;2023-08-31T04:23:22;11.90;99.90
15083;DHT22;7640;53.116;6.878;2023-08-31T04:25:51;11.90;99.90
15083;DHT22;7640;53.116;6.878;2023-08-31T04:28:20;11.90;99.90
15083;DHT22;7640;53.116;6.878;2023-08-31T04:30:51;11.90;99.90
15083;DHT22;7640;53.116;6.878;2023-08-31T04:33:19;11.90;99.90
15083;DHT22;7640;53.116;6.878;2023-08-31T04:35:48;11.90;99.90
15083;DHT22;7640;53.116;6.878;2023-08-31T04:38:16;11.80;99.90
15083;DHT22;7640;53.116;6.878;2023-08-31T04:40:45;11.80;99.90
15083;DHT22;7640;53.116;6.878;2023-08-31T04:43:15;11.80;99.90
15083;DHT22;7640;53.116;6.878;2023-08-31T04:45:45;11.80;99.90
15083;DHT22;7640;53.116;6.878;2023-08-31T04:48:15;11.70;99.90
15083;DHT22;7640;53.116;6.878;2023-08-31T04:50:44;11.70;99.90
15083;DHT22;7640;53.116;6.878;2023-08-31T04:53:12;11.70;99.90
15083;DHT22;7640;53.116;6.878;2023-08-31T04:55:42;11.70;99.90
15083;DHT22;7640;53.116;6.878;2023-08-31T04:58:11;11.70;99.90
15083;DHT22;7640;53.116;6.878;2023-08-31T05:00:39;11.70;99.90
15083;DHT22;7640;53.116;6.878;2023-08-31T05:03:08;11.70;99.90
15083;DHT22;7640;53.116;6.878;2023-08-31T05:05:39;11.70;99.90
15083;DHT22;7640;53.116;6.878;2023-08-31T05:08:09;11.70;99.90
15083;DHT22;7640;53.116;6.878;2023-08-31T05:10:37;11.70;99.90
15083;DHT22;7640;53.116;6.878;2023-08-31T05:13:06;11.70;99.90
15083;DHT22;7640;53.116;6.878;2023-08-31T05:15:35;11.70;99.90
15083;DHT22;7640;53.116;6.878;2023-08-31T05:18:05;11.70;99.90
15083;DHT22;7640;53.116;6.878;2023-08-31T05:20:35;11.70;99.90
15083;DHT22;7640;53.116;6.878;2023-08-31T05:23:05;11.70;99.90
15083;DHT22;7640;53.116;6.878;2023-08-31T05:25:34;11.70;99.90
15083;DHT22;7640;53.116;6.878;2023-08-31T05:28:04;11.70;99.90
15083;DHT22;7640;53.116;6.878;2023-08-31T05:30:33;11.70;99.90
15083;DHT22;7640;53.116;6.878;2023-08-31T05:33:03;11.80;99.90
15083;DHT22;7640;53.116;6.878;2023-08-31T05:35:35;11.80;99.90
15083;DHT22;7640;53.116;6.878;2023-08-31T05:38:05;11.80;99.90
15083;DHT22;7640;53.116;6.878;2023-08-31T05:40:34;11.80;99.90
15083;DHT22;7640;53.116;6.878;2023-08-31T05:43:03;11.90;99.90
15083;DHT22;7640;53.116;6.878;2023-08-31T05:45:33;11.90;99.90
15083;DHT22;7640;53.116;6.878;2023-08-31T05:48:02;11.90;99.90
15083;DHT22;7640;53.116;6.878;2023-08-31T05:50:31;12.00;99.90
15083;DHT22;7640;53.116;6.878;2023-08-31T05:53:00;12.00;99.90
15083;DHT22;7640;53.116;6.878;2023-08-31T05:55:31;12.10;99.90
15083;DHT22;7640;53.116;6.878;2023-08-31T05:58:01;12.20;99.90
15083;DHT22;7640;53.116;6.878;2023-08-31T06:00:30;12.20;99.90
15083;DHT22;7640;53.116;6.878;2023-08-31T06:02:59;12.30;99.90
15083;DHT22;7640;53.116;6.878;2023-08-31T06:05:28;12.40;99.90
15083;DHT22;7640;53.116;6.878;2023-08-31T06:07:58;12.40;99.90
15083;DHT22;7640;53.116;6.878;2023-08-31T06:10:27;12.50;99.90
15083;DHT22;7640;53.116;6.878;2023-08-31T06:12:57;12.50;99.90
15083;DHT22;7640;53.116;6.878;2023-08-31T06:15:26;12.70;99.90
15083;DHT22;7640;53.116;6.878;2023-08-31T06:17:57;12.70;99.90
15083;DHT22;7640;53.116;6.878;2023-08-31T06:20:26;12.70;99.90
15083;DHT22;7640;53.116;6.878;2023-08-31T06:22:55;12.80;99.90
15083;DHT22;7640;53.116;6.878;2023-08-31T06:25:23;12.80;99.90
15083;DHT22;7640;53.116;6.878;2023-08-31T06:27:57;12.90;99.90
15083;DHT22;7640;53.116;6.878;2023-08-31T06:30:35;13.00;99.90
15083;DHT22;7640;53.116;6.878;2023-08-31T06:33:17;13.00;99.90
15083;DHT22;7640;53.116;6.878;2023-08-31T06:35:47;13.10;99.90
15083;DHT22;7640;53.116;6.878;2023-08-31T06:38:19;13.20;99.90
15083;DHT22;7640;53.116;6.878;2023-08-31T06:40:47;13.20;99.90
15083;DHT22;7640;53.116;6.878;2023-08-31T06:43:17;13.30;99.90
15083;DHT22;7640;53.116;6.878;2023-08-31T06:45:46;13.40;99.90
15083;DHT22;7640;53.116;6.878;2023-08-31T06:48:14;13.40;99.90
15083;DHT22;7640;53.116;6.878;2023-08-31T06:50:43;13.50;99.90
15083;DHT22;7640;53.116;6.878;2023-08-31T06:53:12;13.50;99.90
15083;DHT22;7640;53.116;6.878;2023-08-31T06:55:41;13.60;99.90
15083;DHT22;7640;53.116;6.878;2023-08-31T06:58:09;13.70;99.90
15083;DHT22;7640;53.116;6.878;2023-08-31T07:00:39;13.70;99.90
15083;DHT22;7640;53.116;6.878;2023-08-31T07:03:08;13.90;99.90
15083;DHT22;7640;53.116;6.878;2023-08-31T07:05:42;13.90;99.90
15083;DHT22;7640;53.116;6.878;2023-08-31T07:08:11;14.10;99.90
15083;DHT22;7640;53.116;6.878;2023-08-31T07:10:40;14.10;99.90
15083;DHT22;7640;53.116;6.878;2023-08-31T07:13:09;14.20;99.90
15083;DHT22;7640;53.116;6.878;2023-08-31T07:15:39;14.30;99.90
15083;DHT22;7640;53.116;6.878;2023-08-31T07:18:08;14.40;99.90
15083;DHT22;7640;53.116;6.878;2023-08-31T07:20:37;14.50;99.90
15083;DHT22;7640;53.116;6.878;2023-08-31T07:23:06;14.50;99.90
15083;DHT22;7640;53.116;6.878;2023-08-31T07:25:34;14.60;99.90
15083;DHT22;7640;53.116;6.878;2023-08-31T07:28:04;14.70;99.90
15083;DHT22;7640;53.116;6.878;2023-08-31T07:30:33;14.70;99.90
15083;DHT22;7640;53.116;6.878;2023-08-31T07:33:05;14.80;99.90
15083;DHT22;7640;53.116;6.878;2023-08-31T07:35:54;14.90;99.90
15083;DHT22;7640;53.116;6.878;2023-08-31T07:38:24;15.00;99.90
15083;DHT22;7640;53.116;6.878;2023-08-31T07:40:53;15.10;99.90
15083;DHT22;7640;53.116;6.878;2023-08-31T07:43:22;15.20;99.90
15083;DHT22;7640;53.116;6.878;2023-08-31T07:45:50;15.30;99.90
15083;DHT22;7640;53.116;6.878;2023-08-31T07:48:20;15.40;99.90
15083;DHT22;7640;53.116;6.878;2023-08-31T07:50:49;15.50;99.90
15083;DHT22;7640;53.116;6.878;2023-08-31T07:53:18;15.60;99.90
15083;DHT22;7640;53.116;6.878;2023-08-31T07:55:54;15.70;99.90
15083;DHT22;7640;53.116;6.878;2023-08-31T07:58:23;15.80;99.90
15083;DHT22;7640;53.116;6.878;2023-08-31T08:00:53;15.80;99.90
15083;DHT22;7640;53.116;6.878;2023-08-31T08:03:24;16.00;99.90
15083;DHT22;7640;53.116;6.878;2023-08-31T08:05:56;16.00;99.90
15083;DHT22;7640;53.116;6.878;2023-08-31T08:08:25;16.20;99.90
15083;DHT22;7640;53.116;6.878;2023-08-31T08:10:54;16.20;99.90
15083;DHT22;7640;53.116;6.878;2023-08-31T08:13:23;16.30;99.90
15083;DHT22;7640;53.116;6.878;2023-08-31T08:15:51;16.40;99.90
15083;DHT22;7640;53.116;6.878;2023-08-31T08:18:21;16.40;99.90
15083;DHT22;7640;53.116;6.878;2023-08-31T08:20:51;16.50;99.90
15083;DHT22;7640;53.116;6.878;2023-08-31T08:23:20;16.60;99.90
15083;DHT22;7640;53.116;6.878;2023-08-31T08:25:50;16.60;99.90
15083;DHT22;7640;53.116;6.878;2023-08-31T08:28:19;16.70;99.90
15083;DHT22;7640;53.116;6.878;2023-08-31T08:30:47;16.80;99.90
15083;DHT22;7640;53.116;6.878;2023-08-31T08:33:19;16.90;99.90
15083;DHT22;7640;53.116;6.878;2023-08-31T08:35:48;17.10;99.90
15083;DHT22;7640;53.116;6.878;2023-08-31T08:38:18;17.20;99.90
15083;DHT22;7640;53.116;6.878;2023-08-31T08:40:47;17.30;99.90
15083;DHT22;7640;53.116;6.878;2023-08-31T08:43:24;17.30;99.90
15083;DHT22;7640;53.116;6.878;2023-08-31T08:45:54;17.40;99.90
15083;DHT22;7640;53.116;6.878;2023-08-31T08:48:24;17.50;99.90
15083;DHT22;7640;53.116;6.878;2023-08-31T08:50:53;17.60;99.90
15083;DHT22;7640;53.116;6.878;2023-08-31T08:53:24;17.80;99.90
15083;DHT22;7640;53.116;6.878;2023-08-31T08:55:53;18.00;99.90
15083;DHT22;7640;53.116;6.878;2023-08-31T08:58:22;18.20;99.90
15083;DHT22;7640;53.116;6.878;2023-08-31T09:00:52;18.30;99.90
15083;DHT22;7640;53.116;6.878;2023-08-31T09:03:23;18.40;99.90
15083;DHT22;7640;53.116;6.878;2023-08-31T09:05:52;18.50;99.90
15083;DHT22;7640;53.116;6.878;2023-08-31T09:08:27;18.60;99.90
15083;DHT22;7640;53.116;6.878;2023-08-31T09:10:57;18.60;99.90
15083;DHT22;7640;53.116;6.878;2023-08-31T09:13:27;18.50;99.90
15083;DHT22;7640;53.116;6.878;2023-08-31T09:15:56;18.50;99.90
15083;DHT22;7640;53.116;6.878;2023-08-31T09:18:26;18.50;99.90
15083;DHT22;7640;53.116;6.878;2023-08-31T09:20:56;18.50;99.90
15083;DHT22;7640;53.116;6.878;2023-08-31T09:23:27;18.60;99.90
15083;DHT22;7640;53.116;6.878;2023-08-31T09:25:56;18.80;99.90
15083;DHT22;7640;53.116;6.878;2023-08-31T09:28:26;19.00;99.90
15083;DHT22;7640;53.116;6.878;2023-08-31T09:31:05;19.20;99.90
15083;DHT22;7640;53.116;6.878;2023-08-31T09:33:36;19.30;99.90
15083;DHT22;7640;53.116;6.878;2023-08-31T09:36:07;19.50;99.90
15083;DHT22;7640;53.116;6.878;2023-08-31T09:38:43;19.60;99.90
15083;DHT22;7640;53.116;6.878;2023-08-31T09:41:12;19.80;99.90
15083;DHT22;7640;53.116;6.878;2023-08-31T09:43:42;19.90;99.90
15083;DHT22;7640;53.116;6.878;2023-08-31T09:46:11;19.70;99.90
15083;DHT22;7640;53.116;6.878;2023-08-31T09:48:42;19.30;99.90
15083;DHT22;7640;53.116;6.878;2023-08-31T09:51:11;18.60;99.90
15083;DHT22;7640;53.116;6.878;2023-08-31T09:53:47;17.50;99.90
15083;DHT22;7640;53.116;6.878;2023-08-31T09:56:20;16.60;99.90
15083;DHT22;7640;53.116;6.878;2023-08-31T09:58:51;16.00;99.90
15083;DHT22;7640;53.116;6.878;2023-08-31T10:01:20;15.70;99.90
15083;DHT22;7640;53.116;6.878;2023-08-31T10:03:56;15.60;99.90
15083;DHT22;7640;53.116;6.878;2023-08-31T10:06:26;15.50;99.90
15083;DHT22;7640;53.116;6.878;2023-08-31T10:08:57;15.50;99.90
15083;DHT22;7640;53.116;6.878;2023-08-31T10:11:26;15.50;99.90
15083;DHT22;7640;53.116;6.878;2023-08-31T10:13:55;15.60;99.90
15083;DHT22;7640;53.116;6.878;2023-08-31T10:16:25;15.80;99.90
15083;DHT22;7640;53.116;6.878;2023-08-31T10:18:55;15.90;99.90
15083;DHT22;7640;53.116;6.878;2023-08-31T10:21:24;16.10;99.90
15083;DHT22;7640;53.116;6.878;2023-08-31T10:23:52;16.30;99.90
15083;DHT22;7640;53.116;6.878;2023-08-31T10:26:26;16.40;99.90
15083;DHT22;7640;53.116;6.878;2023-08-31T10:28:57;16.50;99.90
15083;DHT22;7640;53.116;6.878;2023-08-31T10:31:28;16.80;99.90
15083;DHT22;7640;53.116;6.878;2023-08-31T10:33:59;16.90;99.90
15083;DHT22;7640;53.116;6.878;2023-08-31T10:36:38;17.00;99.90
15083;DHT22;7640;53.116;6.878;2023-08-31T10:39:12;17.10;99.90
15083;DHT22;7640;53.116;6.878;2023-08-31T10:41:52;17.20;99.90
15083;DHT22;7640;53.116;6.878;2023-08-31T10:44:23;17.10;99.90
15083;DHT22;7640;53.116;6.878;2023-08-31T10:46:52;17.00;99.90
15083;DHT22;7640;53.116;6.878;2023-08-31T10:49:22;17.00;99.90
15083;DHT22;7640;53.116;6.878;2023-08-31T10:51:55;16.90;99.90
15083;DHT22;7640;53.116;6.878;2023-08-31T10:54:25;16.90;99.90
15083;DHT22;7640;53.116;6.878;2023-08-31T10:57:02;16.80;99.90
15083;DHT22;7640;53.116;6.878;2023-08-31T10:59:44;16.70;99.90
15083;DHT22;7640;53.116;6.878;2023-08-31T11:02:32;16.50;99.90
15083;DHT22;7640;53.116;6.878;2023-08-31T11:05:07;16.50;99.90
15083;DHT22;7640;53.116;6.878;2023-08-31T11:07:37;16.70;99.90
15083;DHT22;7640;53.116;6.878;2023-08-31T11:10:09;17.00;99.90
15083;DHT22;7640;53.116;6.878;2023-08-31T11:12:45;17.30;99.90
15083;DHT22;7640;53.116;6.878;2023-08-31T11:15:17;17.50;99.90
15083;DHT22;7640;53.116;6.878;2023-08-31T11:17:49;17.80;99.90
15083;DHT22;7640;53.116;6.878;2023-08-31T11:20:20;18.10;99.90
15083;DHT22;7640;53.116;6.878;2023-08-31T11:22:50;18.40;99.90
15083;DHT22;7640;53.116;6.878;2023-08-31T11:25:21;18.40;99.90
15083;DHT22;7640;53.116;6.878;2023-08-31T11:27:58;18.40;99.90
15083;DHT22;7640;53.116;6.878;2023-08-31T11:30:29;18.30;99.90
15083;DHT22;7640;53.116;6.878;2023-08-31T11:33:02;18.20;99.90
15083;DHT22;7640;53.116;6.878;2023-08-31T11:35:34;18.00;99.90
15083;DHT22;7640;53.116;6.878;2023-08-31T11:38:04;17.80;99.90
15083;DHT22;7640;53.116;6.878;2023-08-31T11:40:34;17.60;99.90
15083;DHT22;7640;53.116;6.878;2023-08-31T11:43:05;17.40;99.90
15083;DHT22;7640;53.116;6.878;2023-08-31T11:45:35;17.40;99.90
15083;DHT22;7640;53.116;6.878;2023-08-31T11:48:05;17.50;99.90
15083;DHT22;7640;53.116;6.878;2023-08-31T11:50:34;17.60;99.90
15083;DHT22;7640;53.116;6.878;2023-08-31T11:53:04;17.80;99.90
15083;DHT22;7640;53.116;6.878;2023-08-31T11:55:33;17.80;99.90
15083;DHT22;7640;53.116;6.878;2023-08-31T11:58:02;17.80;99.90
15083;DHT22;7640;53.116;6.878;2023-08-31T12:00:33;17.80;99.90
15083;DHT22;7640;53.116;6.878;2023-08-31T12:03:02;17.80;99.90
15083;DHT22;7640;53.116;6.878;2023-08-31T12:05:45;17.90;99.90
15083;DHT22;7640;53.116;6.878;2023-08-31T12:08:14;17.80;99.90
15083;DHT22;7640;53.116;6.878;2023-08-31T12:10:44;17.70;99.90
15083;DHT22;7640;53.116;6.878;2023-08-31T12:13:15;17.70;99.90
15083;DHT22;7640;53.116;6.878;2023-08-31T12:15:44;17.60;99.90
15083;DHT22;7640;53.116;6.878;2023-08-31T12:18:13;17.60;99.90
15083;DHT22;7640;53.116;6.878;2023-08-31T12:20:44;17.50;99.90
15083;DHT22;7640;53.116;6.878;2023-08-31T12:23:13;17.40;99.90
15083;DHT22;7640;53.116;6.878;2023-08-31T12:25:47;17.30;99.90
15083;DHT22;7640;53.116;6.878;2023-08-31T12:28:18;17.20;99.90
15083;DHT22;7640;53.116;6.878;2023-08-31T12:30:48;17.20;99.90
15083;DHT22;7640;53.116;6.878;2023-08-31T12:33:18;17.10;99.90
15083;DHT22;7640;53.116;6.878;2023-08-31T12:35:48;17.00;99.90
15083;DHT22;7640;53.116;6.878;2023-08-31T12:38:17;17.00;99.90
15083;DHT22;7640;53.116;6.878;2023-08-31T12:40:47;16.90;99.90
15083;DHT22;7640;53.116;6.878;2023-08-31T12:43:15;16.80;99.90
15083;DHT22;7640;53.116;6.878;2023-08-31T12:45:45;16.80;99.90
15083;DHT22;7640;53.116;6.878;2023-08-31T12:48:16;16.90;99.90
15083;DHT22;7640;53.116;6.878;2023-08-31T12:50:44;16.90;99.90
15083;DHT22;7640;53.116;6.878;2023-08-31T12:53:15;17.10;99.90
15083;DHT22;7640;53.116;6.878;2023-08-31T12:55:43;17.40;99.90
15083;DHT22;7640;53.116;6.878;2023-08-31T12:58:12;17.90;99.90
15083;DHT22;7640;53.116;6.878;2023-08-31T13:00:41;18.50;99.90
15083;DHT22;7640;53.116;6.878;2023-08-31T13:03:12;19.00;99.90
15083;DHT22;7640;53.116;6.878;2023-08-31T13:05:41;19.50;99.90
15083;DHT22;7640;53.116;6.878;2023-08-31T13:08:10;19.90;99.90
15083;DHT22;7640;53.116;6.878;2023-08-31T13:10:40;20.00;99.90
15083;DHT22;7640;53.116;6.878;2023-08-31T13:13:09;19.90;99.90
15083;DHT22;7640;53.116;6.878;2023-08-31T13:15:38;19.70;99.90
15083;DHT22;7640;53.116;6.878;2023-08-31T13:18:06;19.60;99.90
15083;DHT22;7640;53.116;6.878;2023-08-31T13:20:40;19.00;99.90
15083;DHT22;7640;53.116;6.878;2023-08-31T13:23:09;17.90;99.90
15083;DHT22;7640;53.116;6.878;2023-08-31T13:25:38;17.00;99.90
15083;DHT22;7640;53.116;6.878;2023-08-31T13:28:06;16.50;99.90
15083;DHT22;7640;53.116;6.878;2023-08-31T13:30:35;16.70;99.90
15083;DHT22;7640;53.116;6.878;2023-08-31T13:33:04;17.40;99.90
15083;DHT22;7640;53.116;6.878;2023-08-31T13:35:33;18.20;99.90
15083;DHT22;7640;53.116;6.878;2023-08-31T13:38:03;18.80;99.90
15083;DHT22;7640;53.116;6.878;2023-08-31T13:40:34;19.00;99.90
15083;DHT22;7640;53.116;6.878;2023-08-31T13:43:04;19.00;99.90
15083;DHT22;7640;53.116;6.878;2023-08-31T13:45:33;18.90;99.90
15083;DHT22;7640;53.116;6.878;2023-08-31T13:48:02;18.70;99.90
15083;DHT22;7640;53.116;6.878;2023-08-31T13:50:31;18.60;99.90
15083;DHT22;7640;53.116;6.878;2023-08-31T13:53:00;18.60;99.90
15083;DHT22;7640;53.116;6.878;2023-08-31T13:55:32;18.60;99.90
15083;DHT22;7640;53.116;6.878;2023-08-31T13:58:06;18.50;99.90
15083;DHT22;7640;53.116;6.878;2023-08-31T14:00:36;18.60;99.90
15083;DHT22;7640;53.116;6.878;2023-08-31T14:03:05;18.50;99.90
15083;DHT22;7640;53.116;6.878;2023-08-31T14:05:34;18.50;99.90
15083;DHT22;7640;53.116;6.878;2023-08-31T14:08:03;18.30;99.90
15083;DHT22;7640;53.116;6.878;2023-08-31T14:10:34;18.00;99.90
15083;DHT22;7640;53.116;6.878;2023-08-31T14:13:07;17.90;99.90
15083;DHT22;7640;53.116;6.878;2023-08-31T14:15:35;17.90;99.90
15083;DHT22;7640;53.116;6.878;2023-08-31T14:18:11;17.80;99.90
15083;DHT22;7640;53.116;6.878;2023-08-31T14:20:40;18.20;99.90
15083;DHT22;7640;53.116;6.878;2023-08-31T14:23:09;18.50;99.90
15083;DHT22;7640;53.116;6.878;2023-08-31T14:25:39;18.40;99.90
15083;DHT22;7640;53.116;6.878;2023-08-31T14:28:08;18.30;99.90
15083;DHT22;7640;53.116;6.878;2023-08-31T14:30:37;18.20;99.90
15083;DHT22;7640;53.116;6.878;2023-08-31T14:33:06;18.30;99.90
15083;DHT22;7640;53.116;6.878;2023-08-31T14:35:36;18.70;99.90
15083;DHT22;7640;53.116;6.878;2023-08-31T14:38:05;19.10;99.90
15083;DHT22;7640;53.116;6.878;2023-08-31T14:40:34;19.60;99.90
15083;DHT22;7640;53.116;6.878;2023-08-31T14:43:08;20.20;99.90
15083;DHT22;7640;53.116;6.878;2023-08-31T14:45:37;20.80;99.90
15083;DHT22;7640;53.116;6.878;2023-08-31T14:48:07;21.00;99.90
15083;DHT22;7640;53.116;6.878;2023-08-31T14:50:39;20.80;99.90
15083;DHT22;7640;53.116;6.878;2023-08-31T14:53:09;20.50;99.90
15083;DHT22;7640;53.116;6.878;2023-08-31T14:55:38;20.20;99.90
15083;DHT22;7640;53.116;6.878;2023-08-31T14:58:08;19.90;99.90
15083;DHT22;7640;53.116;6.878;2023-08-31T15:00:37;19.60;99.90
15083;DHT22;7640;53.116;6.878;2023-08-31T15:03:06;19.40;99.90
15083;DHT22;7640;53.116;6.878;2023-08-31T15:05:35;19.20;99.90
15083;DHT22;7640;53.116;6.878;2023-08-31T15:08:04;19.10;99.90
15083;DHT22;7640;53.116;6.878;2023-08-31T15:10:33;19.00;99.90
15083;DHT22;7640;53.116;6.878;2023-08-31T15:13:02;19.20;99.90
15083;DHT22;7640;53.116;6.878;2023-08-31T15:15:33;19.90;99.90
15083;DHT22;7640;53.116;6.878;2023-08-31T15:18:02;20.70;99.90
15083;DHT22;7640;53.116;6.878;2023-08-31T15:20:32;21.60;99.90
15083;DHT22;7640;53.116;6.878;2023-08-31T15:23:00;22.40;99.90
15083;DHT22;7640;53.116;6.878;2023-08-31T15:25:29;23.00;99.90
15083;DHT22;7640;53.116;6.878;2023-08-31T15:27:58;23.40;99.90
15083;DHT22;7640;53.116;6.878;2023-08-31T15:30:33;23.90;99.90
15083;DHT22;7640;53.116;6.878;2023-08-31T15:33:02;24.00;99.90
15083;DHT22;7640;53.116;6.878;2023-08-31T15:35:33;24.00;99.90
15083;DHT22;7640;53.116;6.878;2023-08-31T15:38:02;23.90;99.90
15083;DHT22;7640;53.116;6.878;2023-08-31T15:40:33;23.80;99.90
15083;DHT22;7640;53.116;6.878;2023-08-31T15:43:04;23.90;99.90
15083;DHT22;7640;53.116;6.878;2023-08-31T15:45:34;23.90;99.90
15083;DHT22;7640;53.116;6.878;2023-08-31T15:48:04;23.90;99.90
15083;DHT22;7640;53.116;6.878;2023-08-31T15:50:33;24.00;99.90
15083;DHT22;7640;53.116;6.878;2023-08-31T15:53:03;24.40;99.90
15083;DHT22;7640;53.116;6.878;2023-08-31T15:55:35;24.90;99.90
15083;DHT22;7640;53.116;6.878;2023-08-31T15:58:04;25.30;99.90
15083;DHT22;7640;53.116;6.878;2023-08-31T16:00:34;25.80;99.90
15083;DHT22;7640;53.116;6.878;2023-08-31T16:03:04;26.30;99.90